sensor_id;sensor_type;location;lat;lon;timestamp;pressure;altitude;pressure_sealevel;temperature
13304;BMP280;6720;51.958;4.540;2023-05-07T00:00:44;101430.91;;;16.33
13304;BMP280;6720;51.958;4.540;2023-05-07T00:03:09;101424.22;;;16.22
13304;BMP280;6720;51.958;4.540;2023-05-07T00:05:36;101433.59;;;16.32
13304;BMP280;6720;51.958;4.540;2023-05-07T00:08:03;101437.94;;;16.33
13304;BMP280;6720;51.958;4.540;2023-05-07T00:10:28;101442.38;;;16.32
13304;BMP280;6720;51.958;4.540;2023-05-07T00:12:54;101445.09;;;16.31
13304;BMP280;6720;51.958;4.540;2023-05-07T00:15:19;101435.31;;;16.33
13304;BMP280;6720;51.958;4.540;2023-05-07T00:17:45;101434.44;;;16.32
13304;BMP280;6720;51.958;4.540;2023-05-07T00:20:10;101438.09;;;16.28
13304;BMP280;6720;51.958;4.540;2023-05-07T00:22:36;101446.81;;;16.32
13304;BMP280;6720;51.958;4.540;2023-05-07T00:25:01;101434.59;;;16.28
13304;BMP280;6720;51.958;4.540;2023-05-07T00:27:27;101432.75;;;16.30
13304;BMP280;6720;51.958;4.540;2023-05-07T00:29:52;101432.75;;;16.30
13304;BMP280;6720;51.958;4.540;2023-05-07T00:32:17;101424.03;;;16.28
13304;BMP280;6720;51.958;4.540;2023-05-07T00:34:43;101427.47;;;16.30
13304;BMP280;6720;51.958;4.540;2023-05-07T00:37:09;101418.78;;;16.26
13304;BMP280;6720;51.958;4.540;2023-05-07T00:39:37;101425.84;;;16.26
13304;BMP280;6720;51.958;4.540;2023-05-07T00:42:02;101425.84;;;16.26
13304;BMP280;6720;51.958;4.540;2023-05-07T00:44:28;101421.38;;;16.28
13304;BMP280;6720;51.958;4.540;2023-05-07T00:46:55;101417.19;;;16.21
13304;BMP280;6720;51.958;4.540;2023-05-07T00:49:49;101419.06;;;16.17
13304;BMP280;6720;51.958;4.540;2023-05-07T00:52:46;101418.28;;;16.14
13304;BMP280;6720;51.958;4.540;2023-05-07T00:55:46;101426.22;;;16.14
13304;BMP280;6720;51.958;4.540;2023-05-07T01:01:32;101423.75;;;16.08
13304;BMP280;6720;51.958;4.540;2023-05-07T01:04:17;101421.09;;;16.08
13304;BMP280;6720;51.958;4.540;2023-05-07T01:11:14;101417.88;;;15.98
13304;BMP280;6720;51.958;4.540;2023-05-07T01:13:46;101421.22;;;16.05
13304;BMP280;6720;51.958;4.540;2023-05-07T01:16:36;101412.38;;;16.06
13304;BMP280;6720;51.958;4.540;2023-05-07T01:19:37;101395.06;;;15.96
13304;BMP280;6720;51.958;4.540;2023-05-07T01:22:30;101408.16;;;16.00
13304;BMP280;6720;51.958;4.540;2023-05-07T01:24:57;101403.81;;;15.98
13304;BMP280;6720;51.958;4.540;2023-05-07T01:27:24;101399.34;;;16.00
13304;BMP280;6720;51.958;4.540;2023-05-07T01:29:50;101399.22;;;16.04
13304;BMP280;6720;51.958;4.540;2023-05-07T01:32:16;101403.53;;;16.07
13304;BMP280;6720;51.958;4.540;2023-05-07T01:34:45;101393.75;;;16.10
13304;BMP280;6720;51.958;4.540;2023-05-07T01:37:14;101400.09;;;16.05
13304;BMP280;6720;51.958;4.540;2023-05-07T01:39:39;101400.19;;;16.02
13304;BMP280;6720;51.958;4.540;2023-05-07T01:42:05;101395.53;;;16.10
13304;BMP280;6720;51.958;4.540;2023-05-07T01:44:31;101403.44;;;16.10
13304;BMP280;6720;51.958;4.540;2023-05-07T01:46:57;101400.84;;;16.08
13304;BMP280;6720;51.958;4.540;2023-05-07T01:49:22;101405.16;;;16.11
13304;BMP280;6720;51.958;4.540;2023-05-07T01:51:49;101394.59;;;16.11
13304;BMP280;6720;51.958;4.540;2023-05-07T01:54:15;101393.81;;;16.09
13304;BMP280;6720;51.958;4.540;2023-05-07T01:56:41;101395.44;;;16.13
13304;BMP280;6720;51.958;4.540;2023-05-07T01:59:09;101394.56;;;16.12
13304;BMP280;6720;51.958;4.540;2023-05-07T02:01:35;101396.25;;;16.15
13304;BMP280;6720;51.958;4.540;2023-05-07T02:04:01;101392.81;;;16.13
13304;BMP280;6720;51.958;4.540;2023-05-07T02:06:26;101391.00;;;16.13
13304;BMP280;6720;51.958;4.540;2023-05-07T02:08:51;101391.06;;;16.12
13304;BMP280;6720;51.958;4.540;2023-05-07T02:11:17;101391.00;;;16.13
13304;BMP280;6720;51.958;4.540;2023-05-07T02:13:42;101391.06;;;16.12
13304;BMP280;6720;51.958;4.540;2023-05-07T02:16:08;101395.34;;;16.16
13304;BMP280;6720;51.958;4.540;2023-05-07T02:18:33;101393.59;;;16.15
13304;BMP280;6720;51.958;4.540;2023-05-07T02:21:00;101398.88;;;16.15
13304;BMP280;6720;51.958;4.540;2023-05-07T02:23:25;101405.00;;;16.17
13304;BMP280;6720;51.958;4.540;2023-05-07T02:25:51;101403.31;;;16.14
13304;BMP280;6720;51.958;4.540;2023-05-07T02:28:16;101399.84;;;16.12
13304;BMP280;6720;51.958;4.540;2023-05-07T02:30:41;101397.13;;;16.15
13304;BMP280;6720;51.958;4.540;2023-05-07T02:33:27;101397.13;;;16.15
13304;BMP280;6720;51.958;4.540;2023-05-07T02:36:32;101401.81;;;16.06
13304;BMP280;6720;51.958;4.540;2023-05-07T02:39:09;101410.47;;;16.11
13304;BMP280;6720;51.958;4.540;2023-05-07T02:41:34;101406.81;;;16.15
13304;BMP280;6720;51.958;4.540;2023-05-07T02:44:00;101407.78;;;16.12
13304;BMP280;6720;51.958;4.540;2023-05-07T02:46:25;101397.91;;;16.17
13304;BMP280;6720;51.958;4.540;2023-05-07T02:48:50;101399.81;;;16.14
13304;BMP280;6720;51.958;4.540;2023-05-07T02:51:20;101396.25;;;16.15
13304;BMP280;6720;51.958;4.540;2023-05-07T02:53:45;101398.75;;;16.19
13304;BMP280;6720;51.958;4.540;2023-05-07T02:56:11;101400.47;;;16.20
13304;BMP280;6720;51.958;4.540;2023-05-07T02:58:36;101409.31;;;16.19
13304;BMP280;6720;51.958;4.540;2023-05-07T03:01:02;101397.78;;;16.22
13304;BMP280;6720;51.958;4.540;2023-05-07T03:03:27;101399.50;;;16.23
13304;BMP280;6720;51.958;4.540;2023-05-07T03:05:52;101400.44;;;16.22
13304;BMP280;6720;51.958;4.540;2023-05-07T03:08:18;101401.25;;;16.24
13304;BMP280;6720;51.958;4.540;2023-05-07T03:10:43;101404.69;;;16.26
13304;BMP280;6720;51.958;4.540;2023-05-07T03:13:09;101398.66;;;16.22
13304;BMP280;6720;51.958;4.540;2023-05-07T03:15:34;101395.97;;;16.24
13304;BMP280;6720;51.958;4.540;2023-05-07T03:18:00;101401.25;;;16.24
13304;BMP280;6720;51.958;4.540;2023-05-07T03:20:25;101389.06;;;16.20
13304;BMP280;6720;51.958;4.540;2023-05-07T03:22:50;101403.06;;;16.22
13304;BMP280;6720;51.958;4.540;2023-05-07T03:25:16;101398.56;;;16.25
13304;BMP280;6720;51.958;4.540;2023-05-07T03:27:41;101401.25;;;16.24
13304;BMP280;6720;51.958;4.540;2023-05-07T03:30:07;101379.50;;;16.16
13304;BMP280;6720;51.958;4.540;2023-05-07T03:32:34;101395.09;;;16.23
13304;BMP280;6720;51.958;4.540;2023-05-07T03:35:00;101397.78;;;16.22
13304;BMP280;6720;51.958;4.540;2023-05-07T03:37:26;101408.25;;;16.25
13304;BMP280;6720;51.958;4.540;2023-05-07T03:39:51;101389.06;;;16.20
13304;BMP280;6720;51.958;4.540;2023-05-07T03:42:16;101385.50;;;16.21
13304;BMP280;6720;51.958;4.540;2023-05-07T03:44:42;101387.31;;;16.19
13304;BMP280;6720;51.958;4.540;2023-05-07T03:47:07;101396.06;;;16.21
13304;BMP280;6720;51.958;4.540;2023-05-07T03:49:33;101399.63;;;16.20
13304;BMP280;6720;51.958;4.540;2023-05-07T03:51:58;101398.88;;;16.15
13304;BMP280;6720;51.958;4.540;2023-05-07T03:54:23;101392.72;;;16.16
13304;BMP280;6720;51.958;4.540;2023-05-07T03:56:49;101385.78;;;16.12
13304;BMP280;6720;51.958;4.540;2023-05-07T03:59:14;101403.13;;;16.20
13304;BMP280;6720;51.958;4.540;2023-05-07T04:01:40;101403.16;;;16.19
13304;BMP280;6720;51.958;4.540;2023-05-07T04:04:06;101399.72;;;16.17
13304;BMP280;6720;51.958;4.540;2023-05-07T04:06:31;101413.59;;;16.23
13304;BMP280;6720;51.958;4.540;2023-05-07T04:08:57;101418.91;;;16.22
13304;BMP280;6720;51.958;4.540;2023-05-07T04:11:22;101411.91;;;16.21
13304;BMP280;6720;51.958;4.540;2023-05-07T04:13:47;101410.06;;;16.23
13304;BMP280;6720;51.958;4.540;2023-05-07T04:16:13;101410.28;;;16.17
13304;BMP280;6720;51.958;4.540;2023-05-07T04:18:38;101414.59;;;16.19
13304;BMP280;6720;51.958;4.540;2023-05-07T04:21:04;101412.72;;;16.23
13304;BMP280;6720;51.958;4.540;2023-05-07T04:23:29;101411.00;;;16.22
13304;BMP280;6720;51.958;4.540;2023-05-07T04:25:55;101412.78;;;16.21
13304;BMP280;6720;51.958;4.540;2023-05-07T04:28:21;101402.34;;;16.17
13304;BMP280;6720;51.958;4.540;2023-05-07T04:30:46;101408.25;;;16.25
13304;BMP280;6720;51.958;4.540;2023-05-07T04:33:11;101417.03;;;16.27
13304;BMP280;6720;51.958;4.540;2023-05-07T04:35:38;101415.28;;;16.26
13304;BMP280;6720;51.958;4.540;2023-05-07T04:38:04;101407.38;;;16.24
13304;BMP280;6720;51.958;4.540;2023-05-07T04:40:29;101418.69;;;16.29
13304;BMP280;6720;51.958;4.540;2023-05-07T04:42:55;101410.78;;;16.29
13304;BMP280;6720;51.958;4.540;2023-05-07T04:45:20;101413.47;;;16.28
13304;BMP280;6720;51.958;4.540;2023-05-07T04:47:46;101415.09;;;16.32
13304;BMP280;6720;51.958;4.540;2023-05-07T04:50:11;101410.88;;;16.26
13304;BMP280;6720;51.958;4.540;2023-05-07T04:52:37;101413.38;;;16.31
13304;BMP280;6720;51.958;4.540;2023-05-07T04:55:02;101411.53;;;16.33
13304;BMP280;6720;51.958;4.540;2023-05-07T04:57:28;101415.00;;;16.35
13304;BMP280;6720;51.958;4.540;2023-05-07T04:59:54;101416.72;;;16.36
13304;BMP280;6720;51.958;4.540;2023-05-07T05:02:19;101417.59;;;16.36
13304;BMP280;6720;51.958;4.540;2023-05-07T05:04:45;101421.00;;;16.40
13304;BMP280;6720;51.958;4.540;2023-05-07T05:07:10;101415.75;;;16.38
13304;BMP280;6720;51.958;4.540;2023-05-07T05:09:36;101420.06;;;16.41
13304;BMP280;6720;51.958;4.540;2023-05-07T05:12:01;101425.31;;;16.44
13304;BMP280;6720;51.958;4.540;2023-05-07T05:14:27;101427.94;;;16.44
13304;BMP280;6720;51.958;4.540;2023-05-07T05:16:53;101426.16;;;16.46
13304;BMP280;6720;51.958;4.540;2023-05-07T05:19:18;101430.59;;;16.44
13304;BMP280;6720;51.958;4.540;2023-05-07T05:21:44;101437.59;;;16.45
13304;BMP280;6720;51.958;4.540;2023-05-07T05:24:09;101431.47;;;16.44
13304;BMP280;6720;51.958;4.540;2023-05-07T05:26:34;101436.41;;;16.55
13304;BMP280;6720;51.958;4.540;2023-05-07T05:29:00;101434.66;;;16.55
13304;BMP280;6720;51.958;4.540;2023-05-07T05:31:25;101441.50;;;16.61
13304;BMP280;6720;51.958;4.540;2023-05-07T05:33:51;101440.50;;;16.65
13304;BMP280;6720;51.958;4.540;2023-05-07T05:36:16;101448.38;;;16.66
13304;BMP280;6720;51.958;4.540;2023-05-07T05:38:42;101449.94;;;16.72
13304;BMP280;6720;51.958;4.540;2023-05-07T05:41:07;101450.84;;;16.71
13304;BMP280;6720;51.958;4.540;2023-05-07T05:43:34;101453.22;;;16.80
13304;BMP280;6720;51.958;4.540;2023-05-07T05:45:59;101444.41;;;16.79
13304;BMP280;6720;51.958;4.540;2023-05-07T05:48:25;101456.31;;;16.92
13304;BMP280;6720;51.958;4.540;2023-05-07T05:50:50;101462.38;;;16.96
13304;BMP280;6720;51.958;4.540;2023-05-07T05:53:16;101460.75;;;16.92
13304;BMP280;6720;51.958;4.540;2023-05-07T05:55:41;101459.94;;;16.90
13304;BMP280;6720;51.958;4.540;2023-05-07T05:58:07;101469.00;;;16.81
13304;BMP280;6720;51.958;4.540;2023-05-07T06:00:33;101468.16;;;16.81
13304;BMP280;6720;51.958;4.540;2023-05-07T06:02:59;101468.97;;;16.83
13304;BMP280;6720;51.958;4.540;2023-05-07T06:05:24;101464.59;;;16.82
13304;BMP280;6720;51.958;4.540;2023-05-07T06:07:50;101468.16;;;16.81
13304;BMP280;6720;51.958;4.540;2023-05-07T06:10:15;101477.06;;;16.78
13304;BMP280;6720;51.958;4.540;2023-05-07T06:12:41;101479.84;;;16.74
13304;BMP280;6720;51.958;4.540;2023-05-07T06:15:06;101478.94;;;16.75
13304;BMP280;6720;51.958;4.540;2023-05-07T06:17:32;101469.31;;;16.72
13304;BMP280;6720;51.958;4.540;2023-05-07T06:19:57;101479.75;;;16.77
13304;BMP280;6720;51.958;4.540;2023-05-07T06:22:23;101471.81;;;16.77
13304;BMP280;6720;51.958;4.540;2023-05-07T06:24:48;101473.38;;;16.84
13304;BMP280;6720;51.958;4.540;2023-05-07T06:27:14;101474.22;;;16.84
13304;BMP280;6720;51.958;4.540;2023-05-07T06:29:39;101461.88;;;16.85
13304;BMP280;6720;51.958;4.540;2023-05-07T06:32:13;101467.66;;;16.96
13304;BMP280;6720;51.958;4.540;2023-05-07T06:34:39;101471.94;;;17.00
13304;BMP280;6720;51.958;4.540;2023-05-07T06:37:05;101457.03;;;16.97
13304;BMP280;6720;51.958;4.540;2023-05-07T06:39:31;101465.53;;;17.07
13304;BMP280;6720;51.958;4.540;2023-05-07T06:41:57;101466.22;;;17.12
13304;BMP280;6720;51.958;4.540;2023-05-07T06:44:22;101456.47;;;17.14
13304;BMP280;6720;51.958;4.540;2023-05-07T06:46:48;101450.03;;;17.21
13304;BMP280;6720;51.958;4.540;2023-05-07T06:49:13;101462.75;;;17.36
13304;BMP280;6720;51.958;4.540;2023-05-07T06:51:39;101462.47;;;17.45
13304;BMP280;6720;51.958;4.540;2023-05-07T06:54:04;101461.38;;;17.50
13304;BMP280;6720;51.958;4.540;2023-05-07T06:56:47;101469.28;;;17.52
13304;BMP280;6720;51.958;4.540;2023-05-07T06:59:33;101474.56;;;17.52
13304;BMP280;6720;51.958;4.540;2023-05-07T07:02:04;101465.66;;;17.54
13304;BMP280;6720;51.958;4.540;2023-05-07T07:04:30;101463.75;;;17.58
13304;BMP280;6720;51.958;4.540;2023-05-07T07:06:56;101470.66;;;17.62
13304;BMP280;6720;51.958;4.540;2023-05-07T07:09:22;101461.69;;;17.66
13304;BMP280;6720;51.958;4.540;2023-05-07T07:11:48;101470.25;;;17.74
13304;BMP280;6720;51.958;4.540;2023-05-07T07:14:14;101478.88;;;17.79
13304;BMP280;6720;51.958;4.540;2023-05-07T07:16:39;101461.28;;;17.78
13304;BMP280;6720;51.958;4.540;2023-05-07T07:19:05;101471.50;;;17.87
13304;BMP280;6720;51.958;4.540;2023-05-07T07:21:30;101473.34;;;17.85
13304;BMP280;6720;51.958;4.540;2023-05-07T07:23:59;101472.34;;;17.89
13304;BMP280;6720;51.958;4.540;2023-05-07T07:26:25;101471.13;;;17.97
13304;BMP280;6720;51.958;4.540;2023-05-07T07:28:51;101477.75;;;18.09
13304;BMP280;6720;51.958;4.540;2023-05-07T07:31:16;101479.16;;;18.19
13304;BMP280;6720;51.958;4.540;2023-05-07T07:33:44;101484.03;;;18.30
13304;BMP280;6720;51.958;4.540;2023-05-07T07:36:11;101479.22;;;18.41
13304;BMP280;6720;51.958;4.540;2023-05-07T07:38:37;101479.72;;;18.50
13304;BMP280;6720;51.958;4.540;2023-05-07T07:41:02;101483.47;;;18.66
13304;BMP280;6720;51.958;4.540;2023-05-07T07:43:28;101473.91;;;18.62
13304;BMP280;6720;51.958;4.540;2023-05-07T07:45:53;101480.22;;;18.81
13304;BMP280;6720;51.958;4.540;2023-05-07T07:48:22;101483.81;;;18.80
13304;BMP280;6720;51.958;4.540;2023-05-07T07:50:49;101484.41;;;18.87
13304;BMP280;6720;51.958;4.540;2023-05-07T07:53:15;101483.44;;;19.09
13304;BMP280;6720;51.958;4.540;2023-05-07T07:55:41;101477.94;;;19.35
13304;BMP280;6720;51.958;4.540;2023-05-07T07:58:06;101482.22;;;19.59
13304;BMP280;6720;51.958;4.540;2023-05-07T08:00:31;101481.94;;;19.65
13304;BMP280;6720;51.958;4.540;2023-05-07T08:02:57;101489.56;;;19.73
13304;BMP280;6720;51.958;4.540;2023-05-07T08:05:23;101484.72;;;19.82
13304;BMP280;6720;51.958;4.540;2023-05-07T08:07:51;101486.31;;;19.86
13304;BMP280;6720;51.958;4.540;2023-05-07T08:10:18;101480.28;;;20.01
13304;BMP280;6720;51.958;4.540;2023-05-07T08:12:48;101481.22;;;20.20
13304;BMP280;6720;51.958;4.540;2023-05-07T08:15:14;101482.78;;;20.24
13304;BMP280;6720;51.958;4.540;2023-05-07T08:17:40;101483.09;;;20.37
13304;BMP280;6720;51.958;4.540;2023-05-07T08:20:06;101489.25;;;20.37
13304;BMP280;6720;51.958;4.540;2023-05-07T08:22:34;101491.44;;;20.48
13304;BMP280;6720;51.958;4.540;2023-05-07T08:25:03;101492.84;;;20.36
13304;BMP280;6720;51.958;4.540;2023-05-07T08:27:28;101501.72;;;20.37
13304;BMP280;6720;51.958;4.540;2023-05-07T08:29:54;101500.34;;;20.65
13304;BMP280;6720;51.958;4.540;2023-05-07T08:32:20;101506.25;;;20.53
13304;BMP280;6720;51.958;4.540;2023-05-07T08:34:46;101504.13;;;20.41
13304;BMP280;6720;51.958;4.540;2023-05-07T08:37:12;101505.03;;;20.60
13304;BMP280;6720;51.958;4.540;2023-05-07T08:39:37;101504.78;;;20.83
13304;BMP280;6720;51.958;4.540;2023-05-07T08:42:04;101507.63;;;20.97
13304;BMP280;6720;51.958;4.540;2023-05-07T08:44:33;101509.66;;;20.92
13304;BMP280;6720;51.958;4.540;2023-05-07T08:47:01;101509.13;;;21.03
13304;BMP280;6720;51.958;4.540;2023-05-07T08:49:27;101513.38;;;21.07
13304;BMP280;6720;51.958;4.540;2023-05-07T08:51:53;101509.00;;;21.06
13304;BMP280;6720;51.958;4.540;2023-05-07T08:54:18;101509.63;;;21.11
13304;BMP280;6720;51.958;4.540;2023-05-07T08:56:45;101520.84;;;21.17
13304;BMP280;6720;51.958;4.540;2023-05-07T08:59:11;101511.03;;;21.18
13304;BMP280;6720;51.958;4.540;2023-05-07T09:01:36;101510.19;;;21.17
13304;BMP280;6720;51.958;4.540;2023-05-07T09:04:03;101516.44;;;21.16
13304;BMP280;6720;51.958;4.540;2023-05-07T09:06:30;101515.34;;;21.20
13304;BMP280;6720;51.958;4.540;2023-05-07T09:08:58;101524.22;;;21.21
13304;BMP280;6720;51.958;4.540;2023-05-07T09:11:26;101517.38;;;21.15
13304;BMP280;6720;51.958;4.540;2023-05-07T09:13:56;101526.47;;;21.11
13304;BMP280;6720;51.958;4.540;2023-05-07T09:16:23;101522.56;;;21.18
13304;BMP280;6720;51.958;4.540;2023-05-07T09:18:51;101511.75;;;21.21
13304;BMP280;6720;51.958;4.540;2023-05-07T09:21:18;101535.50;;;21.26
13304;BMP280;6720;51.958;4.540;2023-05-07T09:23:48;101532.47;;;21.33
13304;BMP280;6720;51.958;4.540;2023-05-07T09:26:23;101528.56;;;21.40
13304;BMP280;6720;51.958;4.540;2023-05-07T09:28:49;101527.22;;;21.49
13304;BMP280;6720;51.958;4.540;2023-05-07T09:31:15;101533.09;;;21.56
13304;BMP280;6720;51.958;4.540;2023-05-07T09:33:40;101535.78;;;21.73
13304;BMP280;6720;51.958;4.540;2023-05-07T09:36:07;101528.44;;;21.78
13304;BMP280;6720;51.958;4.540;2023-05-07T09:38:35;101533.41;;;21.84
13304;BMP280;6720;51.958;4.540;2023-05-07T09:41:11;101536.00;;;22.02
13304;BMP280;6720;51.958;4.540;2023-05-07T09:44:04;101536.75;;;22.04
13304;BMP280;6720;51.958;4.540;2023-05-07T09:46:42;101534.38;;;22.15
13304;BMP280;6720;51.958;4.540;2023-05-07T09:49:12;101537.41;;;21.92
13304;BMP280;6720;51.958;4.540;2023-05-07T09:51:49;101530.09;;;22.13
13304;BMP280;6720;51.958;4.540;2023-05-07T09:54:16;101534.06;;;22.21
13304;BMP280;6720;51.958;4.540;2023-05-07T09:56:43;101528.75;;;22.37
13304;BMP280;6720;51.958;4.540;2023-05-07T09:59:10;101528.28;;;22.61
13304;BMP280;6720;51.958;4.540;2023-05-07T10:01:40;101534.84;;;22.87
13304;BMP280;6720;51.958;4.540;2023-05-07T10:04:07;101541.53;;;22.94
13304;BMP280;6720;51.958;4.540;2023-05-07T10:06:34;101542.94;;;23.01
13304;BMP280;6720;51.958;4.540;2023-05-07T10:09:00;101542.50;;;23.24
13304;BMP280;6720;51.958;4.540;2023-05-07T10:11:26;101545.94;;;23.41
13304;BMP280;6720;51.958;4.540;2023-05-07T10:13:52;101547.72;;;23.41
13304;BMP280;6720;51.958;4.540;2023-05-07T10:16:18;101542.22;;;23.58
13304;BMP280;6720;51.958;4.540;2023-05-07T10:18:44;101550.13;;;23.75
13304;BMP280;6720;51.958;4.540;2023-05-07T10:21:18;101538.34;;;23.93
13304;BMP280;6720;51.958;4.540;2023-05-07T10:23:53;101535.88;;;24.04
13304;BMP280;6720;51.958;4.540;2023-05-07T10:26:21;101548.50;;;24.16
13304;BMP280;6720;51.958;4.540;2023-05-07T10:28:50;101540.22;;;23.91
13304;BMP280;6720;51.958;4.540;2023-05-07T10:34:01;101550.34;;;23.86
13304;BMP280;6720;51.958;4.540;2023-05-07T10:36:28;101553.53;;;23.77
13304;BMP280;6720;51.958;4.540;2023-05-07T10:38:54;101547.63;;;23.72
13304;BMP280;6720;51.958;4.540;2023-05-07T10:41:20;101551.53;;;23.66
13304;BMP280;6720;51.958;4.540;2023-05-07T10:43:46;101546.44;;;23.62
13304;BMP280;6720;51.958;4.540;2023-05-07T10:46:15;101537.31;;;23.66
13304;BMP280;6720;51.958;4.540;2023-05-07T10:51:30;101562.31;;;23.65
13304;BMP280;6720;51.958;4.540;2023-05-07T11:01:56;101548.28;;;23.32
13304;BMP280;6720;51.958;4.540;2023-05-07T11:04:27;101558.78;;;23.35
13304;BMP280;6720;51.958;4.540;2023-05-07T11:17:33;101553.44;;;23.04
13304;BMP280;6720;51.958;4.540;2023-05-07T11:20:00;101553.59;;;23.01
13304;BMP280;6720;51.958;4.540;2023-05-07T11:25:06;101562.91;;;22.63
13304;BMP280;6720;51.958;4.540;2023-05-07T11:27:32;101559.56;;;22.42
13304;BMP280;6720;51.958;4.540;2023-05-07T11:29:58;101562.81;;;22.32
13304;BMP280;6720;51.958;4.540;2023-05-07T11:34:54;101560.53;;;22.09
13304;BMP280;6720;51.958;4.540;2023-05-07T11:37:21;101561.94;;;21.99
13304;BMP280;6720;51.958;4.540;2023-05-07T11:39:47;101562.38;;;21.91
13304;BMP280;6720;51.958;4.540;2023-05-07T11:42:29;101551.38;;;21.80
13304;BMP280;6720;51.958;4.540;2023-05-07T11:44:54;101559.78;;;21.73
13304;BMP280;6720;51.958;4.540;2023-05-07T11:47:20;101551.63;;;21.76
13304;BMP280;6720;51.958;4.540;2023-05-07T11:49:47;101558.50;;;21.80
13304;BMP280;6720;51.958;4.540;2023-05-07T11:52:13;101561.97;;;21.82
13304;BMP280;6720;51.958;4.540;2023-05-07T11:54:39;101563.69;;;21.83
13304;BMP280;6720;51.958;4.540;2023-05-07T11:57:04;101571.28;;;21.90
13304;BMP280;6720;51.958;4.540;2023-05-07T11:59:38;101554.28;;;21.93
13304;BMP280;6720;51.958;4.540;2023-05-07T12:02:03;101556.53;;;22.17
13304;BMP280;6720;51.958;4.540;2023-05-07T12:04:30;101567.50;;;22.44
13304;BMP280;6720;51.958;4.540;2023-05-07T12:06:55;101562.41;;;22.72
13304;BMP280;6720;51.958;4.540;2023-05-07T12:09:21;101563.53;;;22.99
13304;BMP280;6720;51.958;4.540;2023-05-07T12:11:46;101564.47;;;22.98
13304;BMP280;6720;51.958;4.540;2023-05-07T12:14:11;101556.44;;;22.98
13304;BMP280;6720;51.958;4.540;2023-05-07T12:16:39;101566.47;;;23.25
13304;BMP280;6720;51.958;4.540;2023-05-07T12:19:06;101556.31;;;23.32
13304;BMP280;6720;51.958;4.540;2023-05-07T12:21:34;101559.06;;;23.60
13304;BMP280;6720;51.958;4.540;2023-05-07T12:23:59;101559.00;;;23.46
13304;BMP280;6720;51.958;4.540;2023-05-07T12:26:25;101559.19;;;23.43
13304;BMP280;6720;51.958;4.540;2023-05-07T12:28:50;101558.34;;;23.27
13304;BMP280;6720;51.958;4.540;2023-05-07T12:31:16;101567.63;;;23.20
13304;BMP280;6720;51.958;4.540;2023-05-07T12:33:42;101566.09;;;23.16
13304;BMP280;6720;51.958;4.540;2023-05-07T12:36:08;101576.88;;;22.99
13304;BMP280;6720;51.958;4.540;2023-05-07T12:38:37;101562.59;;;23.00
13304;BMP280;6720;51.958;4.540;2023-05-07T12:41:04;101557.81;;;23.05
13304;BMP280;6720;51.958;4.540;2023-05-07T12:43:30;101565.91;;;23.03
13304;BMP280;6720;51.958;4.540;2023-05-07T12:45:57;101568.09;;;22.97
13304;BMP280;6720;51.958;4.540;2023-05-07T12:48:25;101584.75;;;23.02
13304;BMP280;6720;51.958;4.540;2023-05-07T12:50:54;101580.31;;;23.01
13304;BMP280;6720;51.958;4.540;2023-05-07T12:53:21;101578.94;;;22.94
13304;BMP280;6720;51.958;4.540;2023-05-07T12:55:49;101585.31;;;22.76
13304;BMP280;6720;51.958;4.540;2023-05-07T12:58:27;101603.13;;;22.60
13304;BMP280;6720;51.958;4.540;2023-05-07T13:00:54;101603.97;;;22.28
13304;BMP280;6720;51.958;4.540;2023-05-07T13:03:36;101599.63;;;21.93
13304;BMP280;6720;51.958;4.540;2023-05-07T13:06:04;101606.97;;;21.88
13304;BMP280;6720;51.958;4.540;2023-05-07T13:08:32;101599.41;;;21.62
13304;BMP280;6720;51.958;4.540;2023-05-07T13:10:59;101612.91;;;21.59
13304;BMP280;6720;51.958;4.540;2023-05-07T13:13:25;101632.81;;;21.33
13304;BMP280;6720;51.958;4.540;2023-05-07T13:15:51;101627.38;;;21.17
13304;BMP280;6720;51.958;4.540;2023-05-07T13:18:17;101628.63;;;20.90
13304;BMP280;6720;51.958;4.540;2023-05-07T13:20:42;101623.53;;;20.67
13304;BMP280;6720;51.958;4.540;2023-05-07T13:23:07;101627.31;;;20.62
13304;BMP280;6720;51.958;4.540;2023-05-07T13:25:33;101625.16;;;20.51
13304;BMP280;6720;51.958;4.540;2023-05-07T13:27:58;101623.56;;;20.47
13304;BMP280;6720;51.958;4.540;2023-05-07T13:30:24;101624.13;;;20.35
13304;BMP280;6720;51.958;4.540;2023-05-07T13:32:49;101617.34;;;20.28
13304;BMP280;6720;51.958;4.540;2023-05-07T13:35:16;101625.53;;;20.24
13304;BMP280;6720;51.958;4.540;2023-05-07T13:37:41;101623.09;;;20.19
13304;BMP280;6720;51.958;4.540;2023-05-07T13:40:07;101611.09;;;20.09
13304;BMP280;6720;51.958;4.540;2023-05-07T13:42:33;101618.25;;;20.07
13304;BMP280;6720;51.958;4.540;2023-05-07T13:44:58;101623.84;;;20.01
13304;BMP280;6720;51.958;4.540;2023-05-07T13:47:24;101629.53;;;19.92
13304;BMP280;6720;51.958;4.540;2023-05-07T13:49:49;101624.50;;;19.86
13304;BMP280;6720;51.958;4.540;2023-05-07T13:52:16;101627.16;;;19.86
13304;BMP280;6720;51.958;4.540;2023-05-07T13:54:41;101626.16;;;19.89
13304;BMP280;6720;51.958;4.540;2023-05-07T13:57:07;101634.06;;;19.90
13304;BMP280;6720;51.958;4.540;2023-05-07T13:59:32;101627.81;;;19.91
13304;BMP280;6720;51.958;4.540;2023-05-07T14:01:58;101630.34;;;19.94
13304;BMP280;6720;51.958;4.540;2023-05-07T14:04:23;101639.94;;;19.98
13304;BMP280;6720;51.958;4.540;2023-05-07T14:06:49;101638.84;;;20.02
13304;BMP280;6720;51.958;4.540;2023-05-07T14:09:14;101645.06;;;20.03
13304;BMP280;6720;51.958;4.540;2023-05-07T14:11:40;101648.44;;;20.06
13304;BMP280;6720;51.958;4.540;2023-05-07T14:14:06;101647.41;;;20.10
13304;BMP280;6720;51.958;4.540;2023-05-07T14:16:32;101646.34;;;20.14
13304;BMP280;6720;51.958;4.540;2023-05-07T14:18:57;101634.09;;;20.10
13304;BMP280;6720;51.958;4.540;2023-05-07T14:21:22;101646.56;;;20.10
13304;BMP280;6720;51.958;4.540;2023-05-07T14:23:48;101645.44;;;20.15
13304;BMP280;6720;51.958;4.540;2023-05-07T14:26:13;101652.34;;;20.19
13304;BMP280;6720;51.958;4.540;2023-05-07T14:28:40;101656.84;;;20.17
13304;BMP280;6720;51.958;4.540;2023-05-07T14:31:11;101658.84;;;20.12
13304;BMP280;6720;51.958;4.540;2023-05-07T14:33:36;101649.25;;;20.08
13304;BMP280;6720;51.958;4.540;2023-05-07T14:36:02;101662.66;;;20.05
13304;BMP280;6720;51.958;4.540;2023-05-07T14:38:28;101649.69;;;19.98
13304;BMP280;6720;51.958;4.540;2023-05-07T14:40:54;101657.59;;;19.99
13304;BMP280;6720;51.958;4.540;2023-05-07T14:43:21;101654.16;;;19.97
13304;BMP280;6720;51.958;4.540;2023-05-07T14:45:47;101646.50;;;19.90